Time;durP1;ratioP1;P1;durP2;ratioP2;P2;SDS_P1;SDS_P2;PMS_P1;PMS_P2;Temp;Humidity;BMP_temperature;BMP_pressure;BME280_temperature;BME280_humidity;BME280_pressure;Samples;Min_cycle;Max_cycle;Signal;HPM_P1;HPM_P2
2024/03/14 00:00:30;;;;;;;28.98;17.00;;;;;;;29.89;79.08;101200.19;5037870;28;66164;-31
2024/03/14 00:03:02;;;;;;;29.33;15.70;;;;;;;29.91;79.50;101206.25;5002405;28;71367;-30
2024/03/14 00:05:33;;;;;;;25.73;15.13;;;;;;;29.91;79.80;101203.53;5000104;28;65224;-31
2024/03/14 00:08:05;;;;;;;21.17;15.57;;;;;;;29.92;79.34;101202.50;5018214;28;70190;-31
2024/03/14 00:10:37;;;;;;;32.83;19.88;;;;;;;29.93;79.99;101201.47;5007527;28;66899;-31
2024/03/14 00:13:08;;;;;;;67.80;39.88;;;;;;;29.98;80.20;101212.50;4999823;28;69766;-31
2024/03/14 00:15:38;;;;;;;52.17;32.22;;;;;;;30.04;81.04;101211.69;5002450;28;66538;-30
2024/03/14 00:18:09;;;;;;;48.75;29.50;;;;;;;30.05;81.11;101213.34;5011001;28;69804;-34
2024/03/14 00:20:42;;;;;;;47.45;28.48;;;;;;;30.06;80.75;101215.84;4993824;28;66597;-30
2024/03/14 00:23:13;;;;;;;44.83;27.02;;;;;;;30.10;80.34;101220.84;5003167;28;70420;-30
2024/03/14 00:25:43;;;;;;;42.92;25.73;;;;;;;30.12;82.25;101227.72;5007889;28;66734;-31
2024/03/14 00:28:14;;;;;;;40.30;25.20;;;;;;;30.10;83.42;101216.25;5011117;28;70340;-31
2024/03/14 00:30:44;;;;;;;39.80;23.83;;;;;;;30.16;82.12;101237.06;5003755;28;66582;-31
2024/03/14 00:33:15;;;;;;;33.47;23.40;;;;;;;30.20;82.41;101237.47;4992887;28;68889;-32
2024/03/14 00:35:46;;;;;;;40.22;22.50;;;;;;;30.25;82.93;101245.84;5007493;28;65411;-31
2024/03/14 00:38:19;;;;;;;31.92;21.67;;;;;;;30.23;80.66;101231.72;5012921;28;69726;-31
2024/03/14 00:40:50;;;;;;;32.33;21.02;;;;;;;30.24;82.02;101239.59;5012227;28;66219;-31
2024/03/14 00:43:21;;;;;;;25.98;19.75;;;;;;;30.28;82.39;101250.84;5011996;28;70793;-30
2024/03/14 00:45:52;;;;;;;25.65;17.65;;;;;;;30.30;80.31;101251.47;5000232;28;65806;-31
2024/03/14 00:48:23;;;;;;;25.92;17.67;;;;;;;30.27;81.98;101250.00;5003998;28;70328;-32
2024/03/14 00:50:54;;;;;;;27.60;16.27;;;;;;;30.35;82.10;101253.56;5017027;28;64910;-31
2024/03/14 00:53:26;;;;;;;19.90;15.90;;;;;;;30.37;81.95;101251.47;5001670;28;69691;-32
2024/03/14 00:55:58;;;;;;;23.77;16.52;;;;;;;30.38;81.67;101255.84;5003398;28;66910;-31
2024/03/14 00:58:31;;;;;;;24.33;15.95;;;;;;;30.41;81.66;101266.25;5010921;28;70151;-31
2024/03/14 01:01:03;;;;;;;23.02;15.55;;;;;;;30.45;81.46;101262.06;5013514;28;66646;-31
2024/03/14 01:03:36;;;;;;;26.73;16.65;;;;;;;30.45;81.29;101273.75;5055147;28;70374;-30
2024/03/14 01:06:11;;;;;;;23.15;17.00;;;;;;;30.45;81.50;101272.91;5053927;28;66717;-31
2024/03/14 01:08:41;;;;;;;26.63;18.05;;;;;;;30.45;80.81;101267.50;5052038;28;70457;-31
2024/03/14 01:11:14;;;;;;;22.23;16.90;;;;;;;30.45;81.03;101267.50;5034813;28;67046;-31
2024/03/14 01:13:44;;;;;;;;;;;;;;;30.37;82.82;101275.81;5054972;28;70112;-30
2024/03/14 01:16:15;;;;;;;24.30;17.67;;;;;;;30.48;80.81;101283.34;5049505;28;66458;-32
2024/03/14 01:18:45;;;;;;;28.02;18.00;;;;;;;30.49;80.68;101279.59;5050372;28;69541;-31
2024/03/14 01:21:16;;;;;;;26.67;17.10;;;;;;;30.50;80.44;101282.06;5047394;28;66750;-31
2024/03/14 01:23:47;;;;;;;;;;;;;;;30.41;82.11;101287.91;5055480;28;70299;-31
2024/03/14 01:26:21;;;;;;;22.23;15.18;;;;;;;30.50;80.44;101281.25;5048637;28;67087;-31
2024/03/14 01:28:51;;;;;;;23.27;15.90;;;;;;;30.49;79.76;101279.59;5050706;28;70180;-32
2024/03/14 01:31:22;;;;;;;22.00;16.58;;;;;;;30.53;79.69;101283.53;5047357;28;66065;-30
2024/03/14 01:33:53;;;;;;;27.77;17.05;;;;;;;30.59;79.95;101292.69;5045530;28;71228;-30
2024/03/14 01:36:24;;;;;;;22.33;16.17;;;;;;;30.60;80.17;101297.09;5044247;28;66724;-32
2024/03/14 01:38:55;;;;;;;19.25;16.20;;;;;;;30.60;80.00;101287.09;5048359;28;70614;-31
2024/03/14 01:41:27;;;;;;;21.38;15.60;;;;;;;30.61;79.53;101291.44;5047722;28;66631;-31
2024/03/14 01:43:59;;;;;;;17.90;16.02;;;;;;;30.63;79.68;101281.25;5038344;28;69279;-30
2024/03/14 01:46:32;;;;;;;26.27;15.73;;;;;;;30.66;79.63;101288.94;5042563;28;65705;-30
2024/03/14 01:49:03;;;;;;;21.88;16.30;;;;;;;30.71;79.55;101300.00;5050942;28;70206;-29
2024/03/14 01:51:34;;;;;;;18.77;15.82;;;;;;;30.74;79.24;101304.16;5049012;28;66733;-32
2024/03/14 01:54:05;;;;;;;20.73;15.98;;;;;;;30.77;79.59;101297.50;5048504;28;70246;-31
2024/03/14 01:56:44;;;;;;;22.35;16.80;;;;;;;30.79;78.83;101290.81;5048868;28;68016;-31
2024/03/14 01:59:15;;;;;;;25.33;17.52;;;;;;;30.82;78.94;101289.59;5046403;28;70157;-31
2024/03/14 02:01:47;;;;;;;20.38;16.25;;;;;;;30.84;78.70;101293.78;5050096;28;66202;-30
2024/03/14 02:04:27;;;;;;;21.20;15.82;;;;;;;30.82;79.58;101295.03;5036177;28;70370;-31
2024/03/14 02:07:09;;;;;;;18.17;16.25;;;;;;;30.88;79.44;101296.88;5039229;28;66858;-31
2024/03/14 02:09:40;;;;;;;18.73;14.98;;;;;;;30.91;78.50;101300.00;5035311;28;69943;-31
2024/03/14 02:12:10;;;;;;;23.67;17.00;;;;;;;30.94;78.70;101287.91;5040299;28;66046;-32
2024/03/14 02:14:41;;;;;;;18.08;16.02;;;;;;;30.97;78.76;101292.06;5049402;28;70258;-32
2024/03/14 02:17:12;;;;;;;17.60;15.20;;;;;;;30.93;78.61;101286.25;5048683;28;66750;-31
2024/03/14 02:19:43;;;;;;;21.70;15.27;;;;;;;31.01;78.23;101288.75;5047577;28;69256;-31
2024/03/14 02:22:20;;;;;;;22.10;15.18;;;;;;;31.03;79.14;101291.22;5050451;28;66009;-31
2024/03/14 02:24:51;;;;;;;17.10;15.15;;;;;;;31.06;78.45;101286.19;5037888;28;70028;-31
2024/03/14 02:27:22;;;;;;;15.65;14.02;;;;;;;31.08;78.56;101289.53;5045336;28;65397;-31
2024/03/14 02:29:53;;;;;;;16.95;15.23;;;;;;;31.09;78.45;101288.53;5042464;28;69840;-31
2024/03/14 02:32:24;;;;;;;17.60;14.85;;;;;;;31.14;78.09;101293.28;5044211;28;64774;-31
2024/03/14 02:34:55;;;;;;;18.10;14.43;;;;;;;31.10;78.51;101273.91;5043476;28;69299;-34
2024/03/14 02:37:26;;;;;;;16.25;14.38;;;;;;;31.14;78.07;101275.13;5048816;28;66148;-31
2024/03/14 02:39:56;;;;;;;15.75;14.00;;;;;;;31.24;77.74;101287.44;5041863;28;70072;-30
2024/03/14 02:42:27;;;;;;;19.98;14.63;;;;;;;31.26;78.04;101290.75;5052521;28;66350;-30
2024/03/14 02:44:58;;;;;;;18.83;13.02;;;;;;;31.28;78.12;101284.06;5045770;28;69957;-30
2024/03/14 02:47:28;;;;;;;16.70;13.73;;;;;;;31.28;77.88;101283.22;5033248;28;66648;-32
2024/03/14 02:49:59;;;;;;;15.25;13.65;;;;;;;31.35;77.78;101273.22;5052621;28;70246;-31
2024/03/14 02:52:30;;;;;;;17.13;13.25;;;;;;;31.39;77.66;101274.47;5037660;28;65311;-32
2024/03/14 02:55:01;;;;;;;14.88;13.32;;;;;;;31.42;77.61;101275.91;5032597;28;69856;-32
2024/03/14 02:57:32;;;;;;;17.20;13.32;;;;;;;31.45;77.74;101273.59;5042402;28;66446;-32
2024/03/14 03:00:15;;;;;;;14.43;13.10;;;;;;;31.47;77.10;101276.94;5049567;28;70717;-33
2024/03/14 03:02:46;;;;;;;14.18;12.60;;;;;;;31.54;76.96;101269.63;5042283;28;66594;-31
2024/03/14 03:05:17;;;;;;;17.05;13.10;;;;;;;31.57;77.46;101266.47;5041290;28;70775;-32
2024/03/14 03:07:49;;;;;;;14.38;12.82;;;;;;;31.60;77.33;101276.06;5047390;28;65465;-31
2024/03/14 03:10:22;;;;;;;16.00;12.48;;;;;;;31.62;76.96;101263.09;5042992;28;69088;-35
2024/03/14 03:12:53;;;;;;;15.65;12.93;;;;;;;31.65;76.60;101248.28;5042282;28;66657;-31
2024/03/14 03:15:24;;;;;;;15.23;13.23;;;;;;;31.69;76.59;101247.63;5042520;28;70054;-32
2024/03/14 03:17:54;;;;;;;14.05;12.85;;;;;;;31.73;76.50;101238.03;5047434;28;66058;-31
2024/03/14 03:20:25;;;;;;;15.68;12.82;;;;;;;31.77;76.50;101238.41;5050978;28;69950;-30
2024/03/14 03:23:12;;;;;;;14.75;13.20;;;;;;;31.77;76.54;101235.69;5048653;28;65881;-31
2024/03/14 03:25:43;;;;;;;13.57;12.20;;;;;;;31.85;76.24;101232.72;5046377;28;70364;-33
2024/03/14 03:28:13;;;;;;;13.18;11.88;;;;;;;31.76;76.13;101217.75;5052675;28;66596;-32
2024/03/14 03:30:44;;;;;;;13.20;12.00;;;;;;;31.90;76.28;101232.91;5049046;28;69226;-31
2024/03/14 03:33:20;;;;;;;21.75;11.68;;;;;;;31.94;76.29;101228.72;5039111;28;66950;-30
2024/03/14 03:35:51;;;;;;;15.75;12.27;;;;;;;31.94;75.92;101217.88;5040343;28;70463;-32
2024/03/14 03:38:22;;;;;;;15.02;12.65;;;;;;;32.00;75.81;101224.31;5050856;28;66120;-30
2024/03/14 03:40:52;;;;;;;12.75;11.52;;;;;;;32.01;75.91;101218.66;5038249;28;69518;-33
2024/03/14 03:43:26;;;;;;;13.02;11.80;;;;;;;32.05;75.56;101221.78;5045170;28;66089;-33
2024/03/14 03:45:57;;;;;;;14.32;11.98;;;;;;;32.08;75.79;101212.34;5040713;28;69908;-30
2024/03/14 03:48:27;;;;;;;12.80;11.63;;;;;;;32.09;75.70;101205.88;5045410;28;65784;-32
2024/03/14 03:50:59;;;;;;;15.75;12.43;;;;;;;32.13;75.49;101198.97;5052024;28;70435;-30
2024/03/14 03:53:32;;;;;;;12.90;11.75;;;;;;;32.16;75.63;101204.78;5045514;28;65780;-31
2024/03/14 03:56:03;;;;;;;17.05;11.80;;;;;;;32.20;75.37;101202.44;5043508;28;69870;-32
2024/03/14 03:58:34;;;;;;;12.57;11.43;;;;;;;32.23;75.39;101197.41;5045628;28;66575;-33
2024/03/14 04:01:20;;;;;;;12.35;11.05;;;;;;;32.26;75.39;101187.97;5047549;28;69877;-30
2024/03/14 04:03:52;;;;;;;13.23;11.85;;;;;;;32.26;74.75;101188.81;5041835;28;66723;-31
2024/03/14 04:06:22;;;;;;;;;;;;;;;32.24;75.53;101179.25;5041738;28;70497;-31
2024/03/14 04:08:52;;;;;;;12.48;11.38;;;;;;;32.34;74.77;101173.28;5045959;28;66541;-31
2024/03/14 04:11:23;;;;;;;12.00;10.95;;;;;;;32.36;74.79;101176.63;5054296;28;69616;-31
2024/03/14 04:13:54;;;;;;;12.32;11.20;;;;;;;32.38;74.91;101163.66;5042074;28;67548;-33
2024/03/14 04:16:25;;;;;;;11.93;10.73;;;;;;;32.42;74.99;101165.69;5051393;28;68467;-31
2024/03/14 04:18:55;;;;;;;11.80;10.60;;;;;;;32.45;74.80;101165.22;5052366;28;66451;-31
2024/03/14 04:21:27;;;;;;;13.55;11.13;;;;;;;32.47;74.81;101157.72;5049522;28;70655;-31
2024/03/14 04:23:58;;;;;;;15.63;10.75;;;;;;;32.50;74.61;101156.44;5043353;28;65406;-32
2024/03/14 04:26:29;;;;;;;11.65;10.65;;;;;;;32.54;74.55;101146.81;5056178;28;70555;-30
2024/03/14 04:28:59;;;;;;;12.98;11.25;;;;;;;32.58;74.37;101148.00;5050380;28;65951;-32
2024/03/14 04:31:31;;;;;;;15.88;10.88;;;;;;;32.61;74.60;101133.97;5054386;28;70064;-32
2024/03/14 04:34:04;;;;;;;12.55;11.23;;;;;;;32.65;74.26;101134.34;5048496;28;66127;-32
2024/03/14 04:36:37;;;;;;;11.90;10.73;;;;;;;32.69;74.30;101127.41;5053153;28;70005;-31
2024/03/14 04:39:09;;;;;;;11.38;10.48;;;;;;;32.67;74.41;101126.81;5052771;28;65850;-32
2024/03/14 04:41:39;;;;;;;;;;;;;;;32.64;74.45;101124.53;5053044;28;70085;-31
2024/03/14 04:44:10;;;;;;;12.25;11.15;;;;;;;32.76;74.27;101117.28;5052988;28;66955;-31
2024/03/14 04:46:41;;;;;;;11.10;10.20;;;;;;;32.78;74.14;101112.47;5047237;28;70232;-32
2024/03/14 04:49:12;;;;;;;10.65;9.75;;;;;;;32.77;74.06;101102.66;5039433;28;65953;-30
2024/03/14 04:51:48;;;;;;;11.32;10.32;;;;;;;32.84;73.94;101114.25;5046319;28;70948;-31
2024/03/14 04:54:19;;;;;;;11.83;10.97;;;;;;;32.85;74.05;101093.38;5044142;28;66608;-31
2024/03/14 04:56:50;;;;;;;11.63;10.43;;;;;;;32.91;73.96;101095.19;5069458;28;70708;-31
2024/03/14 04:59:21;;;;;;;11.73;10.60;;;;;;;32.90;73.87;101091.63;5050263;28;66253;-31
2024/03/14 05:01:52;;;;;;;13.00;10.23;;;;;;;32.93;73.42;101080.31;5054111;28;70186;-31
2024/03/14 05:04:22;;;;;;;11.68;10.52;;;;;;;32.99;73.73;101072.25;5050020;28;66315;-31
2024/03/14 05:06:54;;;;;;;11.65;10.55;;;;;;;33.02;73.45;101066.44;5052384;28;70258;-31
2024/03/14 05:09:26;;;;;;;11.77;10.40;;;;;;;33.06;73.52;101062.19;5053840;28;66247;-31
2024/03/14 05:11:57;;;;;;;15.93;10.20;;;;;;;33.07;73.38;101052.94;5056493;28;69667;-32
2024/03/14 05:14:28;;;;;;;14.88;10.85;;;;;;;33.09;73.72;101050.84;5044982;28;65522;-32
2024/03/14 05:16:59;;;;;;;12.52;10.57;;;;;;;33.10;73.44;101042.47;5052659;28;70258;-32
2024/03/14 05:19:31;;;;;;;15.05;10.63;;;;;;;33.13;73.42;101027.59;5053108;28;65743;-31
2024/03/14 05:22:02;;;;;;;11.25;10.20;;;;;;;33.14;73.36;101021.06;5043679;28;69780;-31
2024/03/14 05:24:33;;;;;;;11.27;10.27;;;;;;;33.20;73.32;101019.31;5044276;28;64378;-30
2024/03/14 05:27:03;;;;;;;11.45;10.45;;;;;;;33.21;73.26;101010.94;5050880;28;69709;-31
2024/03/14 05:29:36;;;;;;;11.10;10.30;;;;;;;33.24;72.83;101010.47;5045314;28;67655;-31
2024/03/14 05:32:32;;;;;;;12.82;10.75;;;;;;;33.25;72.66;101006.69;5044873;28;69838;-31
2024/03/14 05:35:03;;;;;;;11.77;9.95;;;;;;;33.32;72.98;101006.56;5035618;28;66589;-31
2024/03/14 05:37:34;;;;;;;13.00;9.75;;;;;;;33.31;72.85;100994.03;5048349;28;70076;-33
2024/03/14 05:40:12;;;;;;;11.75;10.55;;;;;;;33.37;72.62;100996.63;5048205;28;66863;-31
2024/03/14 05:42:44;;;;;;;11.50;10.40;;;;;;;33.40;72.82;100989.09;5046027;28;70637;-32
2024/03/14 05:45:18;;;;;;;11.77;10.40;;;;;;;33.41;72.72;100988.88;5040514;28;67797;-31
2024/03/14 05:47:51;;;;;;;11.17;10.00;;;;;;;33.43;72.83;100975.00;5039673;28;71109;-31
2024/03/14 05:50:23;;;;;;;11.82;10.73;;;;;;;33.46;72.70;100979.97;5039482;28;66595;-31
2024/03/14 05:52:55;;;;;;;12.05;10.82;;;;;;;33.43;72.48;100959.53;5052321;28;69846;-32
2024/03/14 05:55:26;;;;;;;11.57;10.38;;;;;;;33.54;72.79;100961.47;5032665;28;67034;-32
2024/03/14 05:57:57;;;;;;;12.55;10.07;;;;;;;33.55;72.36;100951.41;5041936;28;69840;-32
2024/03/14 06:00:30;;;;;;;11.02;10.05;;;;;;;33.60;72.39;100951.53;5047431;28;66835;-36
2024/03/14 06:03:03;;;;;;;11.80;10.52;;;;;;;33.63;72.42;100945.63;5051875;28;69767;-31
2024/03/14 06:05:33;;;;;;;10.35;9.40;;;;;;;33.66;72.65;100939.72;5046842;28;66064;-32
2024/03/14 06:08:05;;;;;;;11.68;10.55;;;;;;;33.66;72.24;100931.53;5046957;28;69828;-31
2024/03/14 06:10:36;;;;;;;10.88;9.95;;;;;;;33.63;72.35;100925.72;5042930;28;66847;-33
2024/03/14 06:13:08;;;;;;;11.25;10.35;;;;;;;33.67;71.91;100916.88;5038924;28;70494;-32
2024/03/14 06:15:41;;;;;;;10.52;9.73;;;;;;;33.73;72.18;100915.09;5039413;28;65462;-31
2024/03/14 06:18:12;;;;;;;;;;;;;;;33.67;72.11;100911.44;5052096;28;70519;-31
2024/03/14 06:20:45;;;;;;;10.70;9.90;;;;;;;33.81;72.06;100906.56;5041058;28;65970;-32
2024/03/14 06:23:16;;;;;;;11.60;9.52;;;;;;;33.83;72.12;100900.88;5053228;28;69841;-32
2024/03/14 06:25:46;;;;;;;11.43;10.40;;;;;;;33.85;71.78;100885.13;5044495;28;66657;-33
2024/03/14 06:28:17;;;;;;;12.30;11.07;;;;;;;33.86;71.80;100887.63;5027632;28;69923;-32
2024/03/14 06:30:50;;;;;;;14.25;10.63;;;;;;;33.86;71.79;100881.34;5044524;28;66354;-32
2024/03/14 06:33:21;;;;;;;11.95;11.02;;;;;;;33.90;71.63;100877.88;5041461;28;69715;-32
2024/03/14 06:35:52;;;;;;;11.67;10.67;;;;;;;33.91;71.62;100865.97;5048692;28;66298;-32
2024/03/14 06:38:24;;;;;;;12.48;11.23;;;;;;;33.96;71.45;100866.06;5043580;28;69862;-31
2024/03/14 06:40:55;;;;;;;12.20;11.00;;;;;;;33.96;71.71;100857.03;5053220;28;65754;-32
2024/03/14 06:43:26;;;;;;;12.77;11.02;;;;;;;34.00;71.64;100844.63;5046349;28;69387;-31
2024/03/14 06:45:57;;;;;;;11.85;10.93;;;;;;;33.97;71.75;100842.38;5036234;28;66159;-32
2024/03/14 06:48:28;;;;;;;12.13;11.10;;;;;;;34.03;71.17;100833.25;5049363;28;70721;-32
2024/03/14 06:50:59;;;;;;;14.50;10.93;;;;;;;34.05;71.27;100836.59;5047905;28;65153;-31
2024/03/14 06:53:30;;;;;;;11.73;10.80;;;;;;;34.08;71.38;100833.38;5052803;28;70640;-32
2024/03/14 06:56:02;;;;;;;12.10;11.20;;;;;;;34.13;71.23;100828.03;5051289;28;65523;-31
2024/03/14 06:58:33;;;;;;;12.27;11.02;;;;;;;34.13;71.55;100819.03;5035523;28;70175;-32
2024/03/14 07:01:04;;;;;;;11.80;10.33;;;;;;;34.17;71.28;100815.56;5042651;28;66504;-31
2024/03/14 07:03:37;;;;;;;11.82;10.85;;;;;;;34.19;71.11;100816.16;5057576;28;69831;-32
2024/03/14 07:06:12;;;;;;;11.75;10.75;;;;;;;34.11;71.19;100794.78;5054994;28;66406;-32
2024/03/14 07:08:43;;;;;;;11.82;10.93;;;;;;;34.25;71.33;100807.00;5050387;28;70077;-32
2024/03/14 07:11:15;;;;;;;11.15;10.20;;;;;;;34.28;71.11;100800.25;5048613;28;66283;-34
2024/03/14 07:13:48;;;;;;;12.55;11.30;;;;;;;34.28;70.62;100797.53;5047713;28;69020;-32
2024/03/14 07:16:21;;;;;;;12.30;11.25;;;;;;;34.31;71.08;100785.31;5037507;28;64664;-30
2024/03/14 07:18:55;;;;;;;11.85;10.85;;;;;;;34.34;70.65;100788.38;5054696;28;69155;-32
2024/03/14 07:21:28;;;;;;;12.40;11.23;;;;;;;34.34;70.76;100773.94;5037024;28;66478;-32
2024/03/14 07:23:59;;;;;;;12.70;11.73;;;;;;;34.43;70.43;100777.91;5038699;28;70378;-32
2024/03/14 07:26:35;;;;;;;12.70;11.43;;;;;;;34.41;70.40;100770.00;5037332;28;67264;-32
2024/03/14 07:29:06;;;;;;;11.70;10.73;;;;;;;34.46;70.29;100771.94;5039031;28;70126;-32
2024/03/14 07:31:38;;;;;;;12.07;10.97;;;;;;;34.44;70.36;100768.66;5040561;28;66450;-31
2024/03/14 07:34:10;;;;;;;12.65;11.52;;;;;;;34.52;70.54;100767.41;5039864;28;71308;-32
2024/03/14 07:36:41;;;;;;;12.05;11.00;;;;;;;34.50;70.53;100764.94;5039900;28;66659;-31
2024/03/14 07:39:15;;;;;;;;;;;;;;;34.44;70.07;100753.16;5040039;28;70533;-32
2024/03/14 07:41:47;;;;;;;11.60;10.68;;;;;;;34.61;70.51;100755.91;5039775;28;65690;-32
2024/03/14 07:44:18;;;;;;;;;;;;;;;34.56;69.47;100750.38;5052202;28;69595;-31
2024/03/14 07:47:01;;;;;;;12.15;11.05;;;;;;;34.64;69.80;100747.22;5043047;28;67023;-31
2024/03/14 07:49:35;;;;;;;12.20;11.20;;;;;;;34.64;69.91;100747.22;5042844;28;70019;-32
2024/03/14 07:52:06;;;;;;;13.30;12.07;;;;;;;34.69;70.20;100746.47;5041207;28;67264;-31
2024/03/14 07:54:39;;;;;;;12.77;11.60;;;;;;;34.65;69.81;100748.84;5048901;28;70768;-32
2024/03/14 07:57:13;;;;;;;13.73;12.43;;;;;;;34.67;70.15;100752.16;5026943;28;66234;-31
2024/03/14 07:59:44;;;;;;;13.75;12.30;;;;;;;34.74;70.14;100743.00;5040420;28;70670;-32
2024/03/14 08:02:16;;;;;;;13.32;12.15;;;;;;;34.73;70.21;100738.63;5042803;28;66150;-32
2024/03/14 08:04:47;;;;;;;;;;;;;;;34.65;69.75;100737.97;5043761;28;71195;-31
2024/03/14 08:07:22;;;;;;;11.82;10.93;;;;;;;34.72;69.51;100726.91;5037677;28;65928;-33
2024/03/14 08:09:56;;;;;;;13.00;11.88;;;;;;;34.77;69.88;100734.31;5046381;28;70556;-32
2024/03/14 08:12:32;;;;;;;12.75;11.40;;;;;;;34.79;70.08;100734.91;5036134;28;66400;-31
2024/03/14 08:15:16;;;;;;;11.77;10.98;;;;;;;34.82;69.62;100737.13;5055201;28;69235;-32
2024/03/14 08:17:47;;;;;;;13.00;11.82;;;;;;;34.78;70.15;100744.16;5058076;28;65904;-32
2024/03/14 08:20:18;;;;;;;12.70;11.70;;;;;;;34.79;69.69;100737.63;5028946;28;69782;-32
2024/03/14 08:22:52;;;;;;;13.60;11.90;;;;;;;34.82;69.74;100742.56;5049498;28;65925;-32
2024/03/14 08:25:24;;;;;;;12.57;11.50;;;;;;;34.86;69.88;100743.72;5040614;28;69709;-31
2024/03/14 08:27:56;;;;;;;12.45;11.25;;;;;;;34.86;69.89;100741.00;5039225;28;66436;-31
2024/03/14 08:30:28;;;;;;;12.55;11.45;;;;;;;34.85;69.95;100736.59;5042499;28;69050;-32
2024/03/14 08:32:58;;;;;;;12.43;11.25;;;;;;;34.89;69.82;100738.59;5036945;28;65310;-31
2024/03/14 08:35:30;;;;;;;12.23;11.23;;;;;;;34.91;69.60;100741.09;5041749;28;70249;-32
2024/03/14 08:38:01;;;;;;;11.82;10.82;;;;;;;34.89;69.97;100743.22;5042558;28;65769;-32
2024/03/14 08:40:35;;;;;;;11.98;11.05;;;;;;;34.89;69.80;100740.50;5038789;28;69131;-31
2024/03/14 08:43:06;;;;;;;12.02;10.82;;;;;;;34.89;70.16;100743.22;5042744;28;65112;-32
2024/03/14 08:45:38;;;;;;;11.70;10.60;;;;;;;34.89;70.22;100743.22;5050775;28;70332;-31
2024/03/14 08:48:11;;;;;;;11.32;10.40;;;;;;;34.91;70.26;100749.25;5040801;28;66721;-32
2024/03/14 08:50:42;;;;;;;11.60;10.57;;;;;;;34.91;70.22;100750.06;5042471;28;69587;-31
2024/03/14 08:53:15;;;;;;;11.93;10.32;;;;;;;34.91;70.02;100752.81;5039777;28;66493;-32
2024/03/14 08:55:55;;;;;;;11.13;10.30;;;;;;;34.93;69.95;100755.25;5019869;28;70711;-31
2024/03/14 08:58:29;;;;;;;14.18;10.05;;;;;;;34.95;70.27;100769.47;5038801;28;65190;-31
2024/03/14 09:01:03;;;;;;;11.95;9.68;;;;;;;34.95;69.90;100758.56;5045567;28;70618;-30
2024/03/14 09:03:36;;;;;;;11.63;9.90;;;;;;;34.95;70.25;100755.84;5043853;28;65960;-31
2024/03/14 09:06:07;;;;;;;11.05;10.10;;;;;;;34.78;69.89;100730.53;5041012;28;70808;-31
2024/03/14 09:08:39;;;;;;;10.77;9.88;;;;;;;35.01;69.87;100763.00;5059944;28;66736;-32
2024/03/14 09:11:10;;;;;;;10.00;8.98;;;;;;;34.99;70.36;100756.16;5045727;28;69240;-33
2024/03/14 09:13:41;;;;;;;11.13;10.05;;;;;;;34.97;70.09;100744.69;5047305;28;65878;-32
2024/03/14 09:16:12;;;;;;;;;;;;;;;34.77;71.21;100746.06;5051613;28;69948;-33
2024/03/14 09:18:43;;;;;;;14.95;9.50;;;;;;;34.83;71.69;100753.22;5047816;28;66441;-32
2024/03/14 09:21:15;;;;;;;14.68;9.18;;;;;;;34.81;72.02;100757.28;5043959;28;69822;-31
2024/03/14 09:23:46;;;;;;;12.93;8.40;;;;;;;34.80;72.44;100761.06;5045510;28;66618;-31
2024/03/14 09:26:20;;;;;;;9.70;8.80;;;;;;;34.78;72.13;100753.16;5047057;28;70004;-31
2024/03/14 09:28:51;;;;;;;10.52;8.68;;;;;;;34.78;72.58;100752.31;5043861;28;66410;-30
2024/03/14 09:31:23;;;;;;;;;;;;;;;34.68;72.82;100753.00;5044774;28;69088;-32
2024/03/14 09:33:56;;;;;;;14.30;8.00;;;;;;;34.78;71.98;100758.59;5044797;28;67088;-31
2024/03/14 09:36:27;;;;;;;9.23;8.23;;;;;;;34.70;72.33;100751.66;5055561;28;69334;-33
2024/03/14 09:38:58;;;;;;;11.15;8.07;;;;;;;34.62;72.60;100743.91;5048822;28;65552;-31
2024/03/14 09:41:30;;;;;;;9.60;7.60;;;;;;;34.72;72.05;100758.78;5050132;28;69894;-32
2024/03/14 09:44:03;;;;;;;10.45;8.85;;;;;;;34.58;72.52;100736.50;5046878;28;65489;-31
2024/03/14 09:46:36;;;;;;;12.40;10.55;;;;;;;34.62;72.14;100754.81;5058529;28;70498;-31
2024/03/14 09:49:17;;;;;;;15.27;9.98;;;;;;;34.64;72.18;100752.66;5042488;28;66634;-32
2024/03/14 09:51:49;;;;;;;14.45;9.60;;;;;;;34.62;71.75;100749.38;5043506;28;70528;-32
2024/03/14 09:54:20;;;;;;;10.93;10.03;;;;;;;34.64;71.91;100751.84;5041976;28;66689;-32
2024/03/14 09:56:54;;;;;;;15.68;10.43;;;;;;;34.54;72.56;100752.47;5057543;28;70447;-31
2024/03/14 09:59:27;;;;;;;19.05;11.30;;;;;;;34.59;72.57;100755.31;5058905;28;66039;-31
2024/03/14 10:01:58;;;;;;;13.60;9.60;;;;;;;34.59;72.16;100760.75;5057665;28;69116;-31
2024/03/14 10:04:29;;;;;;;11.43;8.75;;;;;;;34.60;72.27;100761.56;5057075;28;65887;-34
2024/03/14 10:07:00;;;;;;;14.32;9.05;;;;;;;34.56;72.33;100777.59;5065689;27;69838;-31
2024/03/14 10:09:32;;;;;;;12.98;7.57;;;;;;;34.53;71.68;100778.06;5043354;28;65681;-30
2024/03/14 10:12:03;;;;;;;9.48;6.90;;;;;;;34.54;71.75;100773.44;5044925;28;70380;-31
2024/03/14 10:14:36;;;;;;;11.02;7.40;;;;;;;34.54;72.02;100793.31;5043014;28;66695;-31
2024/03/14 10:17:07;;;;;;;7.60;7.00;;;;;;;34.51;71.69;100791.09;5046629;28;70200;-36
2024/03/14 10:19:38;;;;;;;12.73;7.70;;;;;;;34.51;71.72;100799.28;5045821;28;66302;-31
2024/03/14 10:22:11;;;;;;;9.57;7.13;;;;;;;34.53;71.49;100799.03;5041370;28;70110;-32
2024/03/14 10:24:43;;;;;;;10.20;6.15;;;;;;;34.44;71.49;100788.56;5047339;28;66593;-32
2024/03/14 10:27:16;;;;;;;8.73;6.50;;;;;;;34.53;71.40;100793.59;5059539;28;70226;-31
2024/03/14 10:29:54;;;;;;;10.55;6.70;;;;;;;34.26;71.04;100770.53;5046908;28;66022;-31
2024/03/14 10:32:25;;;;;;;9.82;6.60;;;;;;;34.49;71.01;100809.59;5044980;28;70189;-31
2024/03/14 10:34:56;;;;;;;;;;;;;;;34.38;71.37;100810.47;5024971;28;66057;-31
2024/03/14 10:37:33;;;;;;;11.23;6.65;;;;;;;34.42;71.39;100814.38;5044409;28;70260;-31
2024/03/14 10:40:19;;;;;;;15.35;6.82;;;;;;;34.42;70.97;100814.38;5028746;28;65168;-31
2024/03/14 10:42:52;;;;;;;11.43;5.95;;;;;;;34.37;70.90;100822.47;5047615;28;70129;-33
2024/03/14 10:45:26;;;;;;;14.45;6.30;;;;;;;34.30;71.75;100817.19;5057383;28;66192;-30
2024/03/14 10:47:58;;;;;;;10.73;6.13;;;;;;;34.36;71.40;100826.25;5028994;28;70243;-31
2024/03/14 10:50:30;;;;;;;9.95;6.18;;;;;;;34.33;71.41;100832.19;5041731;28;66523;-33
2024/03/14 10:53:08;;;;;;;11.90;6.38;;;;;;;34.32;71.14;100835.97;5057711;28;70032;-31
2024/03/14 10:55:40;;;;;;;9.18;6.15;;;;;;;34.30;71.67;100854.44;5051438;28;66057;-31
2024/03/14 10:58:18;;;;;;;14.30;5.53;;;;;;;34.19;71.78;100834.41;5048679;28;70002;-31
2024/03/14 11:00:52;;;;;;;7.85;6.50;;;;;;;34.27;71.86;100853.06;5044802;28;65666;-32
2024/03/14 11:03:25;;;;;;;9.93;6.30;;;;;;;34.29;71.86;100858.25;5041787;28;69774;-31
2024/03/14 11:05:56;;;;;;;11.90;5.88;;;;;;;34.26;71.67;100871.28;5052688;28;66389;-31
2024/03/14 11:08:31;;;;;;;7.55;6.60;;;;;;;34.27;72.05;100861.25;5043494;28;70369;-35
2024/03/14 11:11:03;;;;;;;6.67;6.07;;;;;;;34.22;72.39;100853.78;5034687;28;66818;-36
2024/03/14 11:13:36;;;;;;;10.88;6.75;;;;;;;34.18;72.65;100866.22;5041334;28;70010;-35
2024/03/14 11:16:07;;;;;;;12.63;6.53;;;;;;;34.17;73.19;100872.75;5029723;28;65147;-34
2024/03/14 11:18:45;;;;;;;10.27;6.68;;;;;;;34.10;73.01;100863.91;5057503;28;69945;-32
2024/03/14 11:21:16;;;;;;;11.93;7.28;;;;;;;34.10;73.52;100865.78;5063712;28;66181;-32
2024/03/14 11:23:51;;;;;;;14.75;6.60;;;;;;;34.07;73.25;100867.09;5047834;28;70713;-31
2024/03/14 11:26:23;;;;;;;8.27;6.05;;;;;;;34.12;73.14;100886.25;5049287;28;66558;-31
2024/03/14 11:29:02;;;;;;;10.18;6.65;;;;;;;34.07;73.83;100875.25;5057025;28;70697;-32
2024/03/14 11:31:44;;;;;;;10.15;7.35;;;;;;;34.07;73.26;100879.88;5061931;28;65575;-33
2024/03/14 11:34:17;;;;;;;9.27;6.75;;;;;;;34.04;73.49;100883.88;5055718;28;70925;-31
2024/03/14 11:36:51;;;;;;;10.05;6.50;;;;;;;34.05;73.80;100887.50;5055915;28;65152;-30